sensor_id;sensor_type;location;lat;lon;timestamp;P1;durP1;ratioP1;P2;durP2;ratioP2
24407;SDS011;12542;50.924;4.516;2023-05-01T00:00:16;7.97;;;2.88;;
24407;SDS011;12542;50.924;4.516;2023-05-01T00:02:42;3.97;;;2.60;;
24407;SDS011;12542;50.924;4.516;2023-05-01T00:05:08;5.45;;;2.53;;
24407;SDS011;12542;50.924;4.516;2023-05-01T00:07:34;4.80;;;2.75;;
24407;SDS011;12542;50.924;4.516;2023-05-01T00:10:00;4.57;;;2.72;;
24407;SDS011;12542;50.924;4.516;2023-05-01T00:12:25;3.97;;;2.85;;
24407;SDS011;12542;50.924;4.516;2023-05-01T00:14:54;8.00;;;2.88;;
24407;SDS011;12542;50.924;4.516;2023-05-01T00:17:20;4.20;;;2.90;;
24407;SDS011;12542;50.924;4.516;2023-05-01T00:19:53;7.30;;;3.03;;
24407;SDS011;12542;50.924;4.516;2023-05-01T00:22:19;4.32;;;2.45;;
24407;SDS011;12542;50.924;4.516;2023-05-01T00:24:44;5.13;;;2.90;;
24407;SDS011;12542;50.924;4.516;2023-05-01T00:27:13;4.25;;;2.22;;
24407;SDS011;12542;50.924;4.516;2023-05-01T00:29:38;5.72;;;2.67;;
24407;SDS011;12542;50.924;4.516;2023-05-01T00:32:04;6.78;;;2.90;;
24407;SDS011;12542;50.924;4.516;2023-05-01T00:34:31;4.85;;;3.10;;
24407;SDS011;12542;50.924;4.516;2023-05-01T00:36:59;3.10;;;2.20;;
24407;SDS011;12542;50.924;4.516;2023-05-01T00:39:24;3.58;;;2.40;;
24407;SDS011;12542;50.924;4.516;2023-05-01T00:41:50;4.28;;;2.63;;
24407;SDS011;12542;50.924;4.516;2023-05-01T00:44:16;5.38;;;3.13;;
24407;SDS011;12542;50.924;4.516;2023-05-01T00:46:41;3.58;;;2.92;;
24407;SDS011;12542;50.924;4.516;2023-05-01T00:49:08;3.65;;;2.30;;
24407;SDS011;12542;50.924;4.516;2023-05-01T00:51:34;5.88;;;2.63;;
24407;SDS011;12542;50.924;4.516;2023-05-01T00:54:00;4.25;;;2.70;;
24407;SDS011;12542;50.924;4.516;2023-05-01T00:56:27;4.55;;;3.00;;
24407;SDS011;12542;50.924;4.516;2023-05-01T00:58:54;3.78;;;2.50;;
24407;SDS011;12542;50.924;4.516;2023-05-01T01:01:20;6.22;;;2.63;;
24407;SDS011;12542;50.924;4.516;2023-05-01T01:03:47;5.30;;;2.95;;
24407;SDS011;12542;50.924;4.516;2023-05-01T01:06:29;4.22;;;2.63;;
24407;SDS011;12542;50.924;4.516;2023-05-01T01:11:52;4.13;;;2.58;;
24407;SDS011;12542;50.924;4.516;2023-05-01T01:22:46;5.22;;;2.72;;
24407;SDS011;12542;50.924;4.516;2023-05-01T01:25:47;12.63;;;2.50;;
24407;SDS011;12542;50.924;4.516;2023-05-01T01:36:55;6.28;;;2.83;;
24407;SDS011;12542;50.924;4.516;2023-05-01T01:42:23;8.18;;;3.10;;
24407;SDS011;12542;50.924;4.516;2023-05-01T01:44:55;6.82;;;2.95;;
24407;SDS011;12542;50.924;4.516;2023-05-01T01:47:24;3.30;;;2.90;;
24407;SDS011;12542;50.924;4.516;2023-05-01T01:49:56;4.97;;;3.03;;
24407;SDS011;12542;50.924;4.516;2023-05-01T01:52:25;5.57;;;2.92;;
24407;SDS011;12542;50.924;4.516;2023-05-01T01:54:58;5.88;;;2.90;;
24407;SDS011;12542;50.924;4.516;2023-05-01T01:57:29;4.88;;;2.75;;
24407;SDS011;12542;50.924;4.516;2023-05-01T01:59:58;5.70;;;2.95;;
24407;SDS011;12542;50.924;4.516;2023-05-01T02:02:24;5.13;;;2.97;;
24407;SDS011;12542;50.924;4.516;2023-05-01T02:04:53;4.68;;;2.97;;
24407;SDS011;12542;50.924;4.516;2023-05-01T02:07:21;5.68;;;2.70;;
24407;SDS011;12542;50.924;4.516;2023-05-01T02:09:47;5.82;;;2.78;;
24407;SDS011;12542;50.924;4.516;2023-05-01T02:12:15;6.05;;;2.92;;
24407;SDS011;12542;50.924;4.516;2023-05-01T02:14:42;6.38;;;3.00;;
24407;SDS011;12542;50.924;4.516;2023-05-01T02:17:10;4.38;;;2.55;;
24407;SDS011;12542;50.924;4.516;2023-05-01T02:19:37;5.45;;;2.88;;
24407;SDS011;12542;50.924;4.516;2023-05-01T02:22:07;3.72;;;2.75;;
24407;SDS011;12542;50.924;4.516;2023-05-01T02:24:34;4.80;;;2.90;;
24407;SDS011;12542;50.924;4.516;2023-05-01T02:27:05;3.85;;;3.03;;
24407;SDS011;12542;50.924;4.516;2023-05-01T02:29:35;4.00;;;2.67;;
24407;SDS011;12542;50.924;4.516;2023-05-01T02:32:01;7.95;;;2.78;;
24407;SDS011;12542;50.924;4.516;2023-05-01T02:34:27;4.72;;;2.63;;
24407;SDS011;12542;50.924;4.516;2023-05-01T02:36:53;5.72;;;2.95;;
24407;SDS011;12542;50.924;4.516;2023-05-01T02:39:19;5.57;;;2.60;;
24407;SDS011;12542;50.924;4.516;2023-05-01T02:41:45;5.15;;;2.72;;
24407;SDS011;12542;50.924;4.516;2023-05-01T02:44:13;6.50;;;2.97;;
24407;SDS011;12542;50.924;4.516;2023-05-01T02:46:41;5.13;;;3.05;;
24407;SDS011;12542;50.924;4.516;2023-05-01T02:49:09;4.07;;;2.97;;
24407;SDS011;12542;50.924;4.516;2023-05-01T02:51:36;4.72;;;2.78;;
24407;SDS011;12542;50.924;4.516;2023-05-01T02:54:02;4.97;;;2.85;;
24407;SDS011;12542;50.924;4.516;2023-05-01T02:56:28;5.82;;;3.00;;
24407;SDS011;12542;50.924;4.516;2023-05-01T02:58:55;5.15;;;2.90;;
24407;SDS011;12542;50.924;4.516;2023-05-01T03:01:21;5.75;;;3.08;;
24407;SDS011;12542;50.924;4.516;2023-05-01T03:03:47;5.30;;;3.28;;
24407;SDS011;12542;50.924;4.516;2023-05-01T03:06:13;8.18;;;2.80;;
24407;SDS011;12542;50.924;4.516;2023-05-01T03:08:41;4.47;;;3.00;;
24407;SDS011;12542;50.924;4.516;2023-05-01T03:11:07;3.20;;;2.70;;
24407;SDS011;12542;50.924;4.516;2023-05-01T03:13:36;7.47;;;2.92;;
24407;SDS011;12542;50.924;4.516;2023-05-01T03:16:01;6.05;;;3.25;;
24407;SDS011;12542;50.924;4.516;2023-05-01T03:18:28;7.35;;;4.05;;
24407;SDS011;12542;50.924;4.516;2023-05-01T03:20:54;5.75;;;3.25;;
24407;SDS011;12542;50.924;4.516;2023-05-01T03:23:23;8.25;;;3.47;;
24407;SDS011;12542;50.924;4.516;2023-05-01T03:25:49;6.45;;;3.83;;
24407;SDS011;12542;50.924;4.516;2023-05-01T03:28:15;8.25;;;3.83;;
24407;SDS011;12542;50.924;4.516;2023-05-01T03:30:42;6.10;;;3.90;;
24407;SDS011;12542;50.924;4.516;2023-05-01T03:33:08;11.48;;;3.70;;
24407;SDS011;12542;50.924;4.516;2023-05-01T03:35:34;8.05;;;3.85;;
24407;SDS011;12542;50.924;4.516;2023-05-01T03:38:00;7.47;;;3.95;;
24407;SDS011;12542;50.924;4.516;2023-05-01T03:40:26;7.60;;;3.35;;
24407;SDS011;12542;50.924;4.516;2023-05-01T03:42:51;7.03;;;3.30;;
24407;SDS011;12542;50.924;4.516;2023-05-01T03:45:17;5.72;;;3.05;;
24407;SDS011;12542;50.924;4.516;2023-05-01T03:47:43;4.78;;;3.15;;
24407;SDS011;12542;50.924;4.516;2023-05-01T03:50:08;5.85;;;3.17;;
24407;SDS011;12542;50.924;4.516;2023-05-01T03:52:35;9.20;;;3.60;;
24407;SDS011;12542;50.924;4.516;2023-05-01T03:55:01;9.68;;;3.28;;
24407;SDS011;12542;50.924;4.516;2023-05-01T03:57:27;5.50;;;3.10;;
24407;SDS011;12542;50.924;4.516;2023-05-01T03:59:52;7.82;;;3.40;;
24407;SDS011;12542;50.924;4.516;2023-05-01T04:02:18;6.35;;;3.58;;
24407;SDS011;12542;50.924;4.516;2023-05-01T04:04:44;11.57;;;3.03;;
24407;SDS011;12542;50.924;4.516;2023-05-01T04:07:10;6.68;;;3.33;;
24407;SDS011;12542;50.924;4.516;2023-05-01T04:09:37;5.55;;;3.30;;
24407;SDS011;12542;50.924;4.516;2023-05-01T04:12:03;4.53;;;3.60;;
24407;SDS011;12542;50.924;4.516;2023-05-01T04:14:29;6.32;;;3.20;;
24407;SDS011;12542;50.924;4.516;2023-05-01T04:16:56;4.78;;;3.13;;
24407;SDS011;12542;50.924;4.516;2023-05-01T04:19:22;6.43;;;3.60;;
24407;SDS011;12542;50.924;4.516;2023-05-01T04:21:48;4.55;;;3.47;;
24407;SDS011;12542;50.924;4.516;2023-05-01T04:24:13;4.60;;;3.10;;
24407;SDS011;12542;50.924;4.516;2023-05-01T04:26:40;6.10;;;3.88;;
24407;SDS011;12542;50.924;4.516;2023-05-01T04:29:07;4.53;;;3.50;;
24407;SDS011;12542;50.924;4.516;2023-05-01T04:31:33;5.95;;;3.58;;
24407;SDS011;12542;50.924;4.516;2023-05-01T04:33:59;5.45;;;4.00;;
24407;SDS011;12542;50.924;4.516;2023-05-01T04:36:25;7.95;;;3.63;;
24407;SDS011;12542;50.924;4.516;2023-05-01T04:38:50;6.82;;;3.28;;
24407;SDS011;12542;50.924;4.516;2023-05-01T04:41:16;4.70;;;3.60;;
24407;SDS011;12542;50.924;4.516;2023-05-01T04:43:43;6.57;;;4.00;;
24407;SDS011;12542;50.924;4.516;2023-05-01T04:46:09;4.10;;;3.30;;
24407;SDS011;12542;50.924;4.516;2023-05-01T04:48:34;7.63;;;3.55;;
24407;SDS011;12542;50.924;4.516;2023-05-01T04:51:00;5.60;;;3.13;;
24407;SDS011;12542;50.924;4.516;2023-05-01T04:53:28;4.97;;;3.45;;
24407;SDS011;12542;50.924;4.516;2023-05-01T04:55:53;7.57;;;3.40;;
24407;SDS011;12542;50.924;4.516;2023-05-01T04:58:19;6.93;;;3.58;;
24407;SDS011;12542;50.924;4.516;2023-05-01T05:00:45;5.18;;;3.20;;
24407;SDS011;12542;50.924;4.516;2023-05-01T05:03:11;5.75;;;3.03;;
24407;SDS011;12542;50.924;4.516;2023-05-01T05:05:36;6.55;;;3.33;;
24407;SDS011;12542;50.924;4.516;2023-05-01T05:08:02;7.28;;;3.65;;
24407;SDS011;12542;50.924;4.516;2023-05-01T05:10:28;5.18;;;3.30;;
24407;SDS011;12542;50.924;4.516;2023-05-01T05:12:54;5.45;;;3.58;;
24407;SDS011;12542;50.924;4.516;2023-05-01T05:15:20;6.63;;;3.58;;
24407;SDS011;12542;50.924;4.516;2023-05-01T05:17:45;7.00;;;3.00;;
24407;SDS011;12542;50.924;4.516;2023-05-01T05:20:11;4.93;;;3.55;;
24407;SDS011;12542;50.924;4.516;2023-05-01T05:22:37;4.20;;;3.53;;
24407;SDS011;12542;50.924;4.516;2023-05-01T05:25:03;8.15;;;3.78;;
24407;SDS011;12542;50.924;4.516;2023-05-01T05:27:30;8.52;;;4.20;;
24407;SDS011;12542;50.924;4.516;2023-05-01T05:30:00;6.18;;;3.83;;
24407;SDS011;12542;50.924;4.516;2023-05-01T05:32:26;5.30;;;3.33;;
24407;SDS011;12542;50.924;4.516;2023-05-01T05:34:53;7.82;;;3.63;;
24407;SDS011;12542;50.924;4.516;2023-05-01T05:37:19;6.65;;;4.00;;
24407;SDS011;12542;50.924;4.516;2023-05-01T05:39:44;6.10;;;4.00;;
24407;SDS011;12542;50.924;4.516;2023-05-01T05:42:10;7.63;;;3.80;;
24407;SDS011;12542;50.924;4.516;2023-05-01T05:44:36;4.68;;;3.47;;
24407;SDS011;12542;50.924;4.516;2023-05-01T05:47:03;5.97;;;3.75;;
24407;SDS011;12542;50.924;4.516;2023-05-01T05:49:28;12.27;;;4.22;;
24407;SDS011;12542;50.924;4.516;2023-05-01T05:51:56;6.65;;;3.70;;
24407;SDS011;12542;50.924;4.516;2023-05-01T05:54:22;8.35;;;4.13;;
24407;SDS011;12542;50.924;4.516;2023-05-01T05:56:48;7.95;;;3.80;;
24407;SDS011;12542;50.924;4.516;2023-05-01T05:59:15;5.70;;;4.18;;
24407;SDS011;12542;50.924;4.516;2023-05-01T06:01:42;5.32;;;3.53;;
24407;SDS011;12542;50.924;4.516;2023-05-01T06:04:08;8.32;;;4.20;;
24407;SDS011;12542;50.924;4.516;2023-05-01T06:06:35;5.07;;;3.90;;
24407;SDS011;12542;50.924;4.516;2023-05-01T06:09:01;6.68;;;3.70;;
24407;SDS011;12542;50.924;4.516;2023-05-01T06:11:27;8.70;;;3.90;;
24407;SDS011;12542;50.924;4.516;2023-05-01T06:13:53;6.40;;;3.92;;
24407;SDS011;12542;50.924;4.516;2023-05-01T06:16:19;6.35;;;3.28;;
24407;SDS011;12542;50.924;4.516;2023-05-01T06:18:44;5.95;;;3.28;;
24407;SDS011;12542;50.924;4.516;2023-05-01T06:21:10;6.38;;;3.70;;
24407;SDS011;12542;50.924;4.516;2023-05-01T06:23:36;8.15;;;3.38;;
24407;SDS011;12542;50.924;4.516;2023-05-01T06:26:02;7.32;;;3.72;;
24407;SDS011;12542;50.924;4.516;2023-05-01T06:28:28;6.57;;;3.75;;
24407;SDS011;12542;50.924;4.516;2023-05-01T06:30:53;6.13;;;3.72;;
24407;SDS011;12542;50.924;4.516;2023-05-01T06:33:19;7.53;;;3.30;;
24407;SDS011;12542;50.924;4.516;2023-05-01T06:35:45;5.00;;;3.58;;
24407;SDS011;12542;50.924;4.516;2023-05-01T06:38:11;5.22;;;3.45;;
24407;SDS011;12542;50.924;4.516;2023-05-01T06:40:37;6.43;;;3.75;;
24407;SDS011;12542;50.924;4.516;2023-05-01T06:43:05;6.63;;;3.65;;
24407;SDS011;12542;50.924;4.516;2023-05-01T06:45:34;6.28;;;3.50;;
24407;SDS011;12542;50.924;4.516;2023-05-01T06:48:00;6.93;;;3.97;;
24407;SDS011;12542;50.924;4.516;2023-05-01T06:50:26;6.90;;;3.53;;
24407;SDS011;12542;50.924;4.516;2023-05-01T06:52:52;5.97;;;4.03;;
24407;SDS011;12542;50.924;4.516;2023-05-01T06:55:18;11.98;;;4.65;;
24407;SDS011;12542;50.924;4.516;2023-05-01T06:57:44;7.25;;;4.13;;
24407;SDS011;12542;50.924;4.516;2023-05-01T07:00:10;8.40;;;4.53;;
24407;SDS011;12542;50.924;4.516;2023-05-01T07:02:36;8.05;;;4.97;;
24407;SDS011;12542;50.924;4.516;2023-05-01T07:05:02;9.25;;;4.93;;
24407;SDS011;12542;50.924;4.516;2023-05-01T07:07:28;7.57;;;5.00;;
24407;SDS011;12542;50.924;4.516;2023-05-01T07:09:54;10.18;;;5.15;;
24407;SDS011;12542;50.924;4.516;2023-05-01T07:12:20;7.95;;;4.93;;
24407;SDS011;12542;50.924;4.516;2023-05-01T07:14:47;10.90;;;5.28;;
24407;SDS011;12542;50.924;4.516;2023-05-01T07:17:12;6.97;;;5.05;;
24407;SDS011;12542;50.924;4.516;2023-05-01T07:19:38;6.90;;;5.28;;
24407;SDS011;12542;50.924;4.516;2023-05-01T07:22:04;9.18;;;5.55;;
24407;SDS011;12542;50.924;4.516;2023-05-01T07:24:29;8.43;;;5.88;;
24407;SDS011;12542;50.924;4.516;2023-05-01T07:26:55;8.95;;;6.53;;
24407;SDS011;12542;50.924;4.516;2023-05-01T07:29:21;9.27;;;7.05;;
24407;SDS011;12542;50.924;4.516;2023-05-01T07:31:47;12.75;;;7.30;;
24407;SDS011;12542;50.924;4.516;2023-05-01T07:34:13;11.65;;;8.35;;
24407;SDS011;12542;50.924;4.516;2023-05-01T07:36:40;12.85;;;8.98;;
24407;SDS011;12542;50.924;4.516;2023-05-01T07:39:06;12.43;;;10.10;;
24407;SDS011;12542;50.924;4.516;2023-05-01T07:41:31;14.30;;;10.50;;
24407;SDS011;12542;50.924;4.516;2023-05-01T07:43:57;14.90;;;11.05;;
24407;SDS011;12542;50.924;4.516;2023-05-01T07:46:25;13.13;;;11.45;;
24407;SDS011;12542;50.924;4.516;2023-05-01T07:48:51;16.02;;;12.20;;
24407;SDS011;12542;50.924;4.516;2023-05-01T07:51:17;17.00;;;12.75;;
24407;SDS011;12542;50.924;4.516;2023-05-01T07:53:43;16.60;;;12.15;;
24407;SDS011;12542;50.924;4.516;2023-05-01T07:56:10;17.25;;;12.82;;
24407;SDS011;12542;50.924;4.516;2023-05-01T07:58:37;18.85;;;13.75;;
24407;SDS011;12542;50.924;4.516;2023-05-01T08:01:05;16.80;;;13.90;;
24407;SDS011;12542;50.924;4.516;2023-05-01T08:03:31;20.75;;;14.98;;
24407;SDS011;12542;50.924;4.516;2023-05-01T08:05:57;22.38;;;15.20;;
24407;SDS011;12542;50.924;4.516;2023-05-01T08:08:23;23.48;;;17.52;;
24407;SDS011;12542;50.924;4.516;2023-05-01T08:10:49;25.77;;;18.00;;
24407;SDS011;12542;50.924;4.516;2023-05-01T08:13:16;27.88;;;18.65;;
24407;SDS011;12542;50.924;4.516;2023-05-01T08:15:42;24.50;;;17.85;;
24407;SDS011;12542;50.924;4.516;2023-05-01T08:18:09;28.58;;;19.30;;
24407;SDS011;12542;50.924;4.516;2023-05-01T08:20:35;26.50;;;19.20;;
24407;SDS011;12542;50.924;4.516;2023-05-01T08:23:01;27.25;;;20.45;;
24407;SDS011;12542;50.924;4.516;2023-05-01T08:25:29;28.25;;;20.35;;
24407;SDS011;12542;50.924;4.516;2023-05-01T08:27:56;27.77;;;20.45;;
24407;SDS011;12542;50.924;4.516;2023-05-01T08:30:22;28.05;;;20.30;;
24407;SDS011;12542;50.924;4.516;2023-05-01T08:32:47;32.28;;;21.80;;
24407;SDS011;12542;50.924;4.516;2023-05-01T08:35:13;30.92;;;20.80;;
24407;SDS011;12542;50.924;4.516;2023-05-01T08:37:39;35.72;;;23.35;;
24407;SDS011;12542;50.924;4.516;2023-05-01T08:40:04;34.25;;;22.85;;
24407;SDS011;12542;50.924;4.516;2023-05-01T08:42:33;41.17;;;26.08;;
24407;SDS011;12542;50.924;4.516;2023-05-01T08:45:02;35.75;;;24.13;;
24407;SDS011;12542;50.924;4.516;2023-05-01T08:47:31;37.53;;;23.42;;
24407;SDS011;12542;50.924;4.516;2023-05-01T08:50:02;37.67;;;24.73;;
24407;SDS011;12542;50.924;4.516;2023-05-01T08:52:28;35.75;;;24.45;;
24407;SDS011;12542;50.924;4.516;2023-05-01T08:54:56;40.33;;;25.75;;
24407;SDS011;12542;50.924;4.516;2023-05-01T08:57:22;38.47;;;25.88;;
24407;SDS011;12542;50.924;4.516;2023-05-01T08:59:50;46.05;;;28.40;;
24407;SDS011;12542;50.924;4.516;2023-05-01T09:02:20;42.80;;;28.85;;
24407;SDS011;12542;50.924;4.516;2023-05-01T09:04:50;46.47;;;31.13;;
24407;SDS011;12542;50.924;4.516;2023-05-01T09:07:17;50.80;;;32.45;;
24407;SDS011;12542;50.924;4.516;2023-05-01T09:09:46;51.60;;;30.63;;
24407;SDS011;12542;50.924;4.516;2023-05-01T09:12:17;54.13;;;32.60;;
24407;SDS011;12542;50.924;4.516;2023-05-01T09:14:48;51.17;;;31.55;;
24407;SDS011;12542;50.924;4.516;2023-05-01T09:17:15;52.63;;;32.15;;
24407;SDS011;12542;50.924;4.516;2023-05-01T09:19:41;53.03;;;32.78;;
24407;SDS011;12542;50.924;4.516;2023-05-01T09:22:07;48.85;;;30.55;;
24407;SDS011;12542;50.924;4.516;2023-05-01T09:24:34;53.25;;;33.47;;
24407;SDS011;12542;50.924;4.516;2023-05-01T09:27:00;52.63;;;32.47;;
24407;SDS011;12542;50.924;4.516;2023-05-01T09:29:41;52.83;;;34.35;;
24407;SDS011;12542;50.924;4.516;2023-05-01T09:32:13;51.63;;;33.72;;
24407;SDS011;12542;50.924;4.516;2023-05-01T09:34:44;52.50;;;34.10;;
24407;SDS011;12542;50.924;4.516;2023-05-01T09:37:12;59.40;;;35.88;;
24407;SDS011;12542;50.924;4.516;2023-05-01T09:39:59;52.22;;;34.45;;
24407;SDS011;12542;50.924;4.516;2023-05-01T09:42:33;55.53;;;35.58;;
24407;SDS011;12542;50.924;4.516;2023-05-01T09:45:04;52.72;;;33.42;;
24407;SDS011;12542;50.924;4.516;2023-05-01T09:47:31;57.00;;;34.13;;
24407;SDS011;12542;50.924;4.516;2023-05-01T09:49:58;53.40;;;33.67;;
24407;SDS011;12542;50.924;4.516;2023-05-01T09:52:30;50.47;;;33.22;;
24407;SDS011;12542;50.924;4.516;2023-05-01T09:55:17;54.10;;;33.03;;
24407;SDS011;12542;50.924;4.516;2023-05-01T09:57:44;58.00;;;34.75;;
24407;SDS011;12542;50.924;4.516;2023-05-01T10:00:14;55.35;;;33.88;;
24407;SDS011;12542;50.924;4.516;2023-05-01T10:02:42;55.08;;;34.35;;
24407;SDS011;12542;50.924;4.516;2023-05-01T10:05:09;54.80;;;33.70;;
24407;SDS011;12542;50.924;4.516;2023-05-01T10:07:36;59.63;;;33.22;;
24407;SDS011;12542;50.924;4.516;2023-05-01T10:10:17;52.47;;;32.70;;
24407;SDS011;12542;50.924;4.516;2023-05-01T10:12:44;55.38;;;33.03;;
24407;SDS011;12542;50.924;4.516;2023-05-01T10:15:11;56.58;;;34.45;;
24407;SDS011;12542;50.924;4.516;2023-05-01T10:17:38;54.53;;;33.42;;
24407;SDS011;12542;50.924;4.516;2023-05-01T10:20:08;57.22;;;34.00;;
24407;SDS011;12542;50.924;4.516;2023-05-01T10:22:35;58.67;;;35.75;;
24407;SDS011;12542;50.924;4.516;2023-05-01T10:25:01;58.20;;;33.47;;
24407;SDS011;12542;50.924;4.516;2023-05-01T10:27:29;56.45;;;34.60;;
24407;SDS011;12542;50.924;4.516;2023-05-01T10:29:55;56.30;;;34.08;;
24407;SDS011;12542;50.924;4.516;2023-05-01T10:32:22;58.58;;;35.20;;
24407;SDS011;12542;50.924;4.516;2023-05-01T10:34:49;59.65;;;32.65;;
24407;SDS011;12542;50.924;4.516;2023-05-01T10:37:23;57.95;;;33.28;;
24407;SDS011;12542;50.924;4.516;2023-05-01T10:43:28;61.90;;;33.53;;
24407;SDS011;12542;50.924;4.516;2023-05-01T10:48:54;56.00;;;32.67;;
24407;SDS011;12542;50.924;4.516;2023-05-01T10:51:23;60.83;;;33.67;;
24407;SDS011;12542;50.924;4.516;2023-05-01T10:56:42;54.33;;;30.67;;
24407;SDS011;12542;50.924;4.516;2023-05-01T10:59:08;52.38;;;31.40;;
24407;SDS011;12542;50.924;4.516;2023-05-01T11:12:12;49.33;;;31.05;;
24407;SDS011;12542;50.924;4.516;2023-05-01T11:20:08;50.97;;;30.05;;
24407;SDS011;12542;50.924;4.516;2023-05-01T11:22:35;52.15;;;31.20;;
24407;SDS011;12542;50.924;4.516;2023-05-01T11:25:02;53.15;;;31.58;;
24407;SDS011;12542;50.924;4.516;2023-05-01T11:27:32;49.58;;;32.35;;
24407;SDS011;12542;50.924;4.516;2023-05-01T11:29:58;50.08;;;30.90;;
24407;SDS011;12542;50.924;4.516;2023-05-01T11:32:25;52.28;;;30.73;;
24407;SDS011;12542;50.924;4.516;2023-05-01T11:34:54;51.35;;;31.25;;
24407;SDS011;12542;50.924;4.516;2023-05-01T11:37:41;48.70;;;31.23;;
24407;SDS011;12542;50.924;4.516;2023-05-01T11:40:17;49.72;;;30.58;;
24407;SDS011;12542;50.924;4.516;2023-05-01T11:42:59;45.95;;;27.23;;
24407;SDS011;12542;50.924;4.516;2023-05-01T11:45:36;43.75;;;26.55;;
24407;SDS011;12542;50.924;4.516;2023-05-01T11:48:02;39.05;;;25.52;;
24407;SDS011;12542;50.924;4.516;2023-05-01T11:50:31;39.28;;;25.83;;
24407;SDS011;12542;50.924;4.516;2023-05-01T11:52:59;38.17;;;24.55;;
24407;SDS011;12542;50.924;4.516;2023-05-01T11:55:32;41.40;;;25.52;;
24407;SDS011;12542;50.924;4.516;2023-05-01T11:57:58;38.72;;;24.83;;
24407;SDS011;12542;50.924;4.516;2023-05-01T12:00:43;38.20;;;25.88;;
24407;SDS011;12542;50.924;4.516;2023-05-01T12:03:12;38.78;;;25.05;;
24407;SDS011;12542;50.924;4.516;2023-05-01T12:05:39;46.03;;;28.23;;
24407;SDS011;12542;50.924;4.516;2023-05-01T12:10:42;46.15;;;28.40;;
24407;SDS011;12542;50.924;4.516;2023-05-01T12:13:12;42.45;;;25.20;;
24407;SDS011;12542;50.924;4.516;2023-05-01T12:15:40;30.45;;;19.20;;
24407;SDS011;12542;50.924;4.516;2023-05-01T12:18:11;23.35;;;15.55;;
24407;SDS011;12542;50.924;4.516;2023-05-01T12:23:12;20.27;;;14.32;;
24407;SDS011;12542;50.924;4.516;2023-05-01T12:25:40;17.20;;;12.70;;
24407;SDS011;12542;50.924;4.516;2023-05-01T12:28:13;16.05;;;11.60;;
24407;SDS011;12542;50.924;4.516;2023-05-01T12:30:42;15.50;;;11.70;;
24407;SDS011;12542;50.924;4.516;2023-05-01T12:35:40;18.48;;;11.95;;
24407;SDS011;12542;50.924;4.516;2023-05-01T12:38:19;14.40;;;11.73;;
24407;SDS011;12542;50.924;4.516;2023-05-01T12:40:50;15.48;;;12.85;;
24407;SDS011;12542;50.924;4.516;2023-05-01T12:43:17;15.93;;;12.35;;
24407;SDS011;12542;50.924;4.516;2023-05-01T12:45:44;18.40;;;12.35;;
24407;SDS011;12542;50.924;4.516;2023-05-01T12:48:15;15.68;;;11.40;;
24407;SDS011;12542;50.924;4.516;2023-05-01T12:50:42;15.85;;;11.95;;
24407;SDS011;12542;50.924;4.516;2023-05-01T12:53:18;17.15;;;12.13;;
24407;SDS011;12542;50.924;4.516;2023-05-01T12:55:45;14.27;;;11.73;;
24407;SDS011;12542;50.924;4.516;2023-05-01T12:58:12;16.85;;;12.02;;
24407;SDS011;12542;50.924;4.516;2023-05-01T13:00:42;15.02;;;11.30;;
24407;SDS011;12542;50.924;4.516;2023-05-01T13:03:09;14.75;;;11.68;;
24407;SDS011;12542;50.924;4.516;2023-05-01T13:05:36;16.75;;;12.05;;
24407;SDS011;12542;50.924;4.516;2023-05-01T13:08:26;15.32;;;12.25;;
24407;SDS011;12542;50.924;4.516;2023-05-01T13:11:00;16.88;;;13.23;;
24407;SDS011;12542;50.924;4.516;2023-05-01T13:13:33;18.52;;;13.48;;
24407;SDS011;12542;50.924;4.516;2023-05-01T13:16:10;18.77;;;12.68;;
24407;SDS011;12542;50.924;4.516;2023-05-01T13:18:41;17.25;;;13.25;;
24407;SDS011;12542;50.924;4.516;2023-05-01T13:21:15;17.67;;;13.48;;
24407;SDS011;12542;50.924;4.516;2023-05-01T13:23:53;16.38;;;13.40;;
24407;SDS011;12542;50.924;4.516;2023-05-01T13:26:24;19.02;;;12.93;;
24407;SDS011;12542;50.924;4.516;2023-05-01T13:28:55;19.02;;;13.40;;
24407;SDS011;12542;50.924;4.516;2023-05-01T13:31:23;15.88;;;13.02;;
24407;SDS011;12542;50.924;4.516;2023-05-01T13:33:50;18.27;;;14.60;;
24407;SDS011;12542;50.924;4.516;2023-05-01T13:36:17;17.58;;;13.48;;
24407;SDS011;12542;50.924;4.516;2023-05-01T13:38:53;16.70;;;13.68;;
24407;SDS011;12542;50.924;4.516;2023-05-01T13:41:20;19.15;;;13.38;;
24407;SDS011;12542;50.924;4.516;2023-05-01T13:43:47;17.95;;;13.98;;
24407;SDS011;12542;50.924;4.516;2023-05-01T13:46:16;17.83;;;13.43;;
24407;SDS011;12542;50.924;4.516;2023-05-01T13:48:43;17.63;;;13.38;;
24407;SDS011;12542;50.924;4.516;2023-05-01T13:51:10;23.75;;;14.82;;
24407;SDS011;12542;50.924;4.516;2023-05-01T13:53:40;19.20;;;13.82;;
24407;SDS011;12542;50.924;4.516;2023-05-01T13:56:09;21.92;;;14.25;;
24407;SDS011;12542;50.924;4.516;2023-05-01T13:58:37;21.75;;;14.57;;
24407;SDS011;12542;50.924;4.516;2023-05-01T14:01:05;20.10;;;14.82;;
24407;SDS011;12542;50.924;4.516;2023-05-01T14:03:39;21.55;;;13.98;;
24407;SDS011;12542;50.924;4.516;2023-05-01T14:06:12;20.67;;;13.90;;
24407;SDS011;12542;50.924;4.516;2023-05-01T14:08:42;19.67;;;14.00;;
24407;SDS011;12542;50.924;4.516;2023-05-01T14:11:12;20.15;;;14.32;;
24407;SDS011;12542;50.924;4.516;2023-05-01T14:13:42;21.98;;;14.60;;
24407;SDS011;12542;50.924;4.516;2023-05-01T14:16:09;17.52;;;12.93;;
24407;SDS011;12542;50.924;4.516;2023-05-01T14:18:44;19.70;;;13.57;;
24407;SDS011;12542;50.924;4.516;2023-05-01T14:21:12;18.85;;;12.98;;
24407;SDS011;12542;50.924;4.516;2023-05-01T14:23:42;18.95;;;12.88;;
24407;SDS011;12542;50.924;4.516;2023-05-01T14:26:09;18.80;;;12.80;;
24407;SDS011;12542;50.924;4.516;2023-05-01T14:28:41;16.80;;;13.40;;
24407;SDS011;12542;50.924;4.516;2023-05-01T14:31:29;18.00;;;12.10;;
24407;SDS011;12542;50.924;4.516;2023-05-01T14:33:58;16.77;;;10.85;;
24407;SDS011;12542;50.924;4.516;2023-05-01T14:36:26;15.48;;;10.85;;
24407;SDS011;12542;50.924;4.516;2023-05-01T14:38:56;16.00;;;10.55;;
24407;SDS011;12542;50.924;4.516;2023-05-01T14:41:22;15.40;;;10.73;;
24407;SDS011;12542;50.924;4.516;2023-05-01T14:43:49;16.15;;;11.55;;
24407;SDS011;12542;50.924;4.516;2023-05-01T14:46:21;17.00;;;11.48;;
24407;SDS011;12542;50.924;4.516;2023-05-01T14:48:52;16.10;;;11.25;;
24407;SDS011;12542;50.924;4.516;2023-05-01T14:51:18;16.38;;;12.10;;
24407;SDS011;12542;50.924;4.516;2023-05-01T14:53:44;17.42;;;11.05;;
24407;SDS011;12542;50.924;4.516;2023-05-01T14:56:10;16.70;;;11.85;;
24407;SDS011;12542;50.924;4.516;2023-05-01T14:58:36;19.20;;;12.02;;
24407;SDS011;12542;50.924;4.516;2023-05-01T15:01:02;17.88;;;11.48;;
24407;SDS011;12542;50.924;4.516;2023-05-01T15:03:28;18.48;;;12.43;;
24407;SDS011;12542;50.924;4.516;2023-05-01T15:05:55;18.25;;;11.25;;
24407;SDS011;12542;50.924;4.516;2023-05-01T15:08:21;17.58;;;11.65;;
24407;SDS011;12542;50.924;4.516;2023-05-01T15:10:48;12.63;;;10.50;;
24407;SDS011;12542;50.924;4.516;2023-05-01T15:13:16;15.90;;;10.70;;
24407;SDS011;12542;50.924;4.516;2023-05-01T15:15:42;18.80;;;13.00;;
24407;SDS011;12542;50.924;4.516;2023-05-01T15:18:07;17.75;;;12.35;;
24407;SDS011;12542;50.924;4.516;2023-05-01T15:20:33;15.45;;;10.52;;
24407;SDS011;12542;50.924;4.516;2023-05-01T15:22:59;17.52;;;11.40;;
24407;SDS011;12542;50.924;4.516;2023-05-01T15:25:24;15.13;;;10.18;;
24407;SDS011;12542;50.924;4.516;2023-05-01T15:27:50;17.85;;;10.85;;
24407;SDS011;12542;50.924;4.516;2023-05-01T15:30:16;15.02;;;11.02;;
24407;SDS011;12542;50.924;4.516;2023-05-01T15:32:41;16.70;;;10.77;;